Time;durP1;ratioP1;P1;durP2;ratioP2;P2;SDS_P1;SDS_P2;PMS_P1;PMS_P2;Temp;Humidity;BMP_temperature;BMP_pressure;BME280_temperature;BME280_humidity;BME280_pressure;Samples;Min_cycle;Max_cycle;Signal;HPM_P1;HPM_P2
2021/11/05 00:01:46;;;;;;;15.85;14.15;;;8.20;99.90;;;;;;5034400;28;20520;-83
2021/11/05 00:04:15;;;;;;;19.33;14.80;;;8.20;99.90;;;;;;5015054;28;20033;-83
2021/11/05 00:06:41;;;;;;;16.75;14.80;;;8.60;99.90;;;;;;5044732;28;20082;-83
2021/11/05 00:09:07;;;;;;;16.58;14.57;;;8.80;99.90;;;;;;5034181;28;20034;-83
2021/11/05 00:11:37;;;;;;;16.83;14.23;;;8.70;99.90;;;;;;5035495;28;20034;-83
2021/11/05 00:14:04;;;;;;;17.48;15.00;;;8.30;99.90;;;;;;5035354;28;20112;-82
2021/11/05 00:16:31;;;;;;;18.98;14.75;;;8.30;99.90;;;;;;5034038;28;20117;-83
2021/11/05 00:19:05;;;;;;;18.17;15.10;;;8.20;99.90;;;;;;5033075;28;20022;-82
2021/11/05 00:21:32;;;;;;;17.73;15.40;;;8.20;99.90;;;;;;5037009;28;20482;-83
2021/11/05 00:23:58;;;;;;;20.00;15.20;;;8.20;99.90;;;;;;5034788;28;20091;-83
2021/11/05 00:26:23;;;;;;;17.63;14.80;;;8.20;99.90;;;;;;5035180;28;20481;-83
2021/11/05 00:28:49;;;;;;;17.45;15.05;;;8.20;99.90;;;;;;5035378;28;20040;-82
2021/11/05 00:31:15;;;;;;;18.77;15.18;;;8.30;99.90;;;;;;5030845;28;20033;-82
2021/11/05 00:33:40;;;;;;;17.95;14.93;;;8.40;99.90;;;;;;5044358;28;20025;-82
2021/11/05 00:36:13;;;;;;;16.05;14.40;;;8.40;99.90;;;;;;5035534;28;20556;-82
2021/11/05 00:38:43;;;;;;;15.88;13.95;;;8.40;99.90;;;;;;5035125;28;20437;-83
2021/11/05 00:41:19;;;;;;;16.00;13.65;;;8.40;99.90;;;;;;5035368;28;20560;-83
2021/11/05 00:43:47;;;;;;;17.45;14.23;;;8.50;99.90;;;;;;5033195;28;20029;-83
2021/11/05 00:46:13;;;;;;;17.13;14.88;;;9.00;99.90;;;;;;5030110;28;20072;-82
2021/11/05 00:48:39;;;;;;;17.27;14.30;;;8.50;99.90;;;;;;5036291;28;20410;-82
2021/11/05 00:51:05;;;;;;;16.95;14.80;;;8.80;99.90;;;;;;5034933;28;20474;-83
2021/11/05 00:53:35;;;;;;;17.52;14.95;;;8.80;99.90;;;;;;5034748;28;20025;-82
2021/11/05 00:56:07;;;;;;;17.10;14.45;;;8.50;99.90;;;;;;5035090;28;20033;-83
2021/11/05 00:58:33;;;;;;;16.58;14.75;;;8.30;99.90;;;;;;5032702;28;20037;-83
2021/11/05 01:00:58;;;;;;;16.65;14.15;;;8.30;99.90;;;;;;5032596;28;20037;-82
2021/11/05 01:03:24;;;;;;;18.27;14.30;;;8.40;99.90;;;;;;5034442;28;20101;-82
2021/11/05 01:05:50;;;;;;;18.60;14.85;;;8.70;99.90;;;;;;5034788;28;20026;-82
2021/11/05 01:08:16;;;;;;;20.92;15.23;;;8.40;99.90;;;;;;5034136;28;20406;-83
2021/11/05 01:10:43;;;;;;;18.45;14.38;;;8.40;99.90;;;;;;5034124;28;20443;-83
2021/11/05 01:13:09;;;;;;;18.73;14.43;;;8.40;99.90;;;;;;5030951;28;20034;-83
2021/11/05 01:15:35;;;;;;;17.17;14.30;;;8.40;99.90;;;;;;5036448;28;20098;-82
2021/11/05 01:18:02;;;;;;;16.25;14.45;;;8.40;99.90;;;;;;5034431;28;20072;-83
2021/11/05 01:20:28;;;;;;;19.60;14.73;;;8.40;99.90;;;;;;5034158;28;20514;-83
2021/11/05 01:22:54;;;;;;;18.45;14.10;;;8.40;99.90;;;;;;5033199;28;20025;-83
2021/11/05 01:25:21;;;;;;;17.20;14.50;;;8.40;99.90;;;;;;5029816;28;20041;-83
2021/11/05 01:27:48;;;;;;;16.80;13.80;;;8.90;99.90;;;;;;5034630;28;20372;-83
2021/11/05 01:30:15;;;;;;;15.95;14.25;;;8.40;99.90;;;;;;5031837;28;20030;-84
2021/11/05 01:32:41;;;;;;;16.73;13.63;;;8.80;99.90;;;;;;5034433;28;20489;-84
2021/11/05 01:35:09;;;;;;;17.42;14.38;;;8.40;99.90;;;;;;5034432;28;20084;-84
2021/11/05 01:37:35;;;;;;;18.08;14.05;;;8.40;99.90;;;;;;5032146;28;20056;-85
2021/11/05 01:40:02;;;;;;;17.45;14.18;;;8.40;99.90;;;;;;5032170;28;20021;-83
2021/11/05 01:42:28;;;;;;;15.85;13.25;;;8.20;99.90;;;;;;5035878;28;20068;-84
2021/11/05 01:44:53;;;;;;;15.57;13.50;;;8.30;99.90;;;;;;5034069;28;20053;-83
2021/11/05 01:47:26;;;;;;;16.52;14.05;;;8.10;99.90;;;;;;5034474;28;20073;-83
2021/11/05 01:49:52;;;;;;;16.63;14.27;;;8.40;99.90;;;;;;5034070;28;20027;-84
2021/11/05 01:52:19;;;;;;;17.10;14.25;;;7.70;99.90;;;;;;5030145;28;20030;-84
2021/11/05 01:54:46;;;;;;;16.58;14.13;;;7.60;99.90;;;;;;5035275;28;20105;-83
2021/11/05 01:57:15;;;;;;;19.48;14.73;;;7.50;99.90;;;;;;5034394;28;20140;-84
2021/11/05 01:59:40;;;;;;;17.38;15.57;;;7.40;99.90;;;;;;5033372;28;20375;-84
2021/11/05 02:02:08;;;;;;;18.25;15.50;;;7.70;99.90;;;;;;5031700;28;20033;-84
2021/11/05 02:04:37;;;;;;;17.60;15.65;;;7.30;99.90;;;;;;5032419;28;20083;-83
2021/11/05 02:07:09;;;;;;;17.65;15.55;;;7.20;99.90;;;;;;5031134;28;20119;-84
2021/11/05 02:09:38;;;;;;;19.10;15.80;;;7.20;99.90;;;;;;5035988;28;20044;-84
2021/11/05 02:12:07;;;;;;;19.60;16.58;;;7.10;99.90;;;;;;5033627;28;20034;-84
2021/11/05 02:14:33;;;;;;;19.08;16.35;;;7.00;99.90;;;;;;5034408;28;20029;-84
2021/11/05 02:17:01;;;;;;;20.98;16.92;;;7.00;99.90;;;;;;5033795;28;20036;-84
2021/11/05 02:19:45;;;;;;;21.35;17.35;;;7.00;99.90;;;;;;5030275;28;20040;-83
2021/11/05 02:22:13;;;;;;;20.35;16.70;;;6.90;99.90;;;;;;5028402;28;20524;-83
2021/11/05 02:24:41;;;;;;;19.40;17.17;;;6.80;99.90;;;;;;5035303;28;20036;-84
2021/11/05 02:27:07;;;;;;;19.38;17.27;;;6.70;99.90;;;;;;5033752;28;20513;-83
2021/11/05 02:29:36;;;;;;;20.63;16.83;;;6.70;99.90;;;;;;5032938;28;20029;-84
2021/11/05 02:32:04;;;;;;;21.73;17.75;;;6.70;99.90;;;;;;5033599;28;20481;-83
2021/11/05 02:34:31;;;;;;;23.88;17.58;;;6.70;99.90;;;;;;5030715;28;20017;-84
2021/11/05 02:36:58;;;;;;;21.58;18.38;;;6.60;99.90;;;;;;5031712;28;20028;-84
2021/11/05 02:39:24;;;;;;;21.67;18.00;;;6.50;99.90;;;;;;5035503;28;20021;-83
2021/11/05 02:41:51;;;;;;;20.50;17.58;;;6.50;99.90;;;;;;5035253;28;20171;-83
2021/11/05 02:44:18;;;;;;;21.00;18.40;;;6.50;99.90;;;;;;5035517;28;20042;-83
2021/11/05 02:46:44;;;;;;;19.83;17.65;;;6.40;99.90;;;;;;5036865;28;20083;-83
2021/11/05 02:49:14;;;;;;;20.98;17.95;;;6.40;99.90;;;;;;5031331;28;20063;-83
2021/11/05 02:51:40;;;;;;;24.08;18.05;;;6.40;99.90;;;;;;5038814;28;20021;-84
2021/11/05 02:54:07;;;;;;;18.70;16.52;;;6.30;99.90;;;;;;5036795;28;20040;-83
2021/11/05 02:56:34;;;;;;;20.02;17.45;;;6.20;99.90;;;;;;5037013;28;20028;-84
2021/11/05 02:58:59;;;;;;;19.30;16.83;;;6.30;99.90;;;;;;5036729;28;20025;-83
2021/11/05 03:01:26;;;;;;;20.08;17.50;;;6.30;99.90;;;;;;5033936;28;20122;-84
2021/11/05 03:03:52;;;;;;;24.40;20.13;;;6.30;99.90;;;;;;5036908;28;20031;-83
2021/11/05 03:06:18;;;;;;;24.95;20.33;;;6.30;99.90;;;;;;5037509;28;20361;-83
2021/11/05 03:08:44;;;;;;;22.05;19.33;;;6.20;99.90;;;;;;5036599;28;20021;-83
2021/11/05 03:11:12;;;;;;;23.67;19.25;;;6.20;99.90;;;;;;5036558;28;20490;-83
2021/11/05 03:13:43;;;;;;;23.45;19.08;;;6.20;99.90;;;;;;5035702;28;20079;-83
2021/11/05 03:16:10;;;;;;;22.95;19.40;;;6.30;99.90;;;;;;5032281;28;20026;-83
2021/11/05 03:18:40;;;;;;;21.00;17.88;;;6.20;99.90;;;;;;5037684;28;20025;-83
2021/11/05 03:21:07;;;;;;;22.80;18.77;;;6.30;99.90;;;;;;5035087;28;20103;-83
2021/11/05 03:23:33;;;;;;;23.50;19.23;;;6.50;99.90;;;;;;5034668;28;20033;-84
2021/11/05 03:25:58;;;;;;;20.42;18.23;;;6.70;99.90;;;;;;5036110;28;20401;-84
2021/11/05 03:28:24;;;;;;;20.92;17.85;;;7.30;99.90;;;;;;5033271;28;20049;-83
2021/11/05 03:30:50;;;;;;;19.90;17.40;;;6.80;99.90;;;;;;5036605;28;20017;-84
2021/11/05 03:33:15;;;;;;;20.83;17.20;;;6.80;99.90;;;;;;5036571;28;20037;-84
2021/11/05 03:35:41;;;;;;;18.98;16.80;;;7.40;99.90;;;;;;5036552;28;20029;-83
2021/11/05 03:38:06;;;;;;;19.15;16.40;;;6.70;99.90;;;;;;5036039;28;20070;-84
2021/11/05 03:40:33;;;;;;;19.55;16.95;;;6.80;99.90;;;;;;5034300;28;20406;-84
2021/11/05 03:42:59;;;;;;;21.60;16.90;;;6.80;99.90;;;;;;5034088;28;20037;-83
2021/11/05 03:45:25;;;;;;;19.65;16.23;;;6.70;99.90;;;;;;5035941;28;20616;-84
2021/11/05 03:47:51;;;;;;;17.75;15.85;;;6.80;99.90;;;;;;5035566;28;20132;-84
2021/11/05 03:50:17;;;;;;;19.90;16.10;;;7.10;99.90;;;;;;5036021;28;20021;-84
2021/11/05 03:52:44;;;;;;;18.58;16.17;;;6.80;99.90;;;;;;5035088;28;20036;-83
2021/11/05 03:55:10;;;;;;;19.75;16.80;;;7.00;99.90;;;;;;5031207;28;20025;-84
2021/11/05 03:57:48;;;;;;;21.55;16.27;;;6.90;99.90;;;;;;5037508;28;20025;-84
2021/11/05 04:00:15;;;;;;;18.80;16.25;;;7.10;99.90;;;;;;5037515;28;20112;-84
2021/11/05 04:02:41;;;;;;;17.83;15.60;;;7.10;99.90;;;;;;5034247;28;20030;-84
2021/11/05 04:05:07;;;;;;;18.35;16.25;;;7.70;99.90;;;;;;5035958;28;20052;-84
2021/11/05 04:07:33;;;;;;;19.90;16.38;;;7.30;99.90;;;;;;5033668;28;20079;-83
2021/11/05 04:09:58;;;;;;;19.58;16.77;;;7.20;99.90;;;;;;5033658;28;20448;-84
2021/11/05 04:12:24;;;;;;;19.73;16.55;;;7.20;99.90;;;;;;5037137;28;20025;-83
2021/11/05 04:14:50;;;;;;;22.73;17.45;;;7.20;99.90;;;;;;5034046;28;20516;-83
2021/11/05 04:17:16;;;;;;;22.15;17.67;;;7.20;99.90;;;;;;5035440;28;20025;-84
2021/11/05 04:19:42;;;;;;;24.83;18.00;;;7.20;99.90;;;;;;5034868;28;20066;-83
2021/11/05 04:24:43;;;;;;;23.30;18.83;;;7.20;99.90;;;;;;5866202;23;20045;-84
2021/11/05 04:27:09;;;;;;;24.77;19.40;;;7.20;99.90;;;;;;5081225;22;20037;-84
2021/11/05 04:29:35;;;;;;;27.63;18.83;;;7.30;99.90;;;;;;5031204;28;20624;-83
2021/11/05 04:32:03;;;;;;;27.35;20.10;;;7.30;99.90;;;;;;5036454;28;20033;-84
2021/11/05 04:34:29;;;;;;;28.42;20.27;;;7.40;99.90;;;;;;5033991;28;20021;-83
2021/11/05 04:36:55;;;;;;;30.13;20.10;;;7.50;99.90;;;;;;5034568;28;20397;-84
2021/11/05 04:39:21;;;;;;;27.40;19.80;;;6.90;99.90;;;;;;5034796;28;20028;-83
2021/11/05 04:41:48;;;;;;;28.45;20.40;;;6.90;99.90;;;;;;5032353;28;20139;-83
2021/11/05 04:44:14;;;;;;;28.90;21.27;;;6.80;99.90;;;;;;5034040;28;20037;-83
2021/11/05 04:46:41;;;;;;;27.42;19.73;;;6.60;99.90;;;;;;5036110;28;20034;-83
2021/11/05 04:49:06;;;;;;;26.27;20.10;;;6.50;99.90;;;;;;5034648;28;20040;-83
2021/11/05 04:51:32;;;;;;;30.17;20.33;;;6.80;99.90;;;;;;5034619;28;20041;-83
2021/11/05 04:53:58;;;;;;;27.80;19.67;;;7.40;99.90;;;;;;5033374;28;20027;-83
2021/11/05 04:56:24;;;;;;;28.77;21.88;;;7.20;99.90;;;;;;5030882;28;20038;-83
2021/11/05 04:58:49;;;;;;;29.00;21.38;;;7.70;99.90;;;;;;5036990;28;20026;-83
2021/11/05 05:01:15;;;;;;;41.05;22.92;;;7.10;99.90;;;;;;5033663;28;20025;-83
2021/11/05 05:03:41;;;;;;;29.92;20.35;;;6.60;99.90;;;;;;5037376;28;20032;-83
2021/11/05 05:06:07;;;;;;;29.95;20.95;;;6.80;99.90;;;;;;5045155;28;20055;-83
2021/11/05 05:08:32;;;;;;;31.20;21.58;;;6.90;99.90;;;;;;5030063;28;20490;-83
2021/11/05 05:10:58;;;;;;;34.90;21.50;;;6.60;99.90;;;;;;5036386;28;20025;-83
2021/11/05 05:13:23;;;;;;;32.15;21.60;;;6.80;99.90;;;;;;5033628;28;20033;-83
2021/11/05 05:15:49;;;;;;;33.85;21.17;;;6.80;99.90;;;;;;5034271;28;20021;-83
2021/11/05 05:18:16;;;;;;;39.75;22.20;;;6.80;99.90;;;;;;5033947;28;20475;-83
2021/11/05 05:20:45;;;;;;;34.17;22.33;;;7.20;99.90;;;;;;5030793;28;20018;-84
2021/11/05 05:23:12;;;;;;;61.03;22.88;;;6.70;99.90;;;;;;5033450;28;20131;-84
2021/11/05 05:25:39;;;;;;;33.97;24.08;;;6.60;99.90;;;;;;5034687;28;20041;-83
2021/11/05 05:28:05;;;;;;;43.42;24.00;;;6.60;99.90;;;;;;5034461;28;20037;-84
2021/11/05 05:30:32;;;;;;;49.55;23.88;;;6.60;99.90;;;;;;5033937;28;20033;-84
2021/11/05 05:32:58;;;;;;;62.38;25.02;;;6.60;99.90;;;;;;5031611;28;20471;-83
2021/11/05 05:35:24;;;;;;;72.97;25.23;;;7.20;99.90;;;;;;5029725;28;20038;-83
2021/11/05 05:37:54;;;;;;;43.53;25.65;;;6.70;99.90;;;;;;5035889;28;20033;-83
2021/11/05 05:40:22;;;;;;;47.15;24.45;;;7.40;99.90;;;;;;5033607;28;20028;-83
2021/11/05 05:42:49;;;;;;;48.10;25.33;;;6.80;99.90;;;;;;5032548;28;20021;-83
2021/11/05 05:45:15;;;;;;;63.00;24.30;;;7.00;99.90;;;;;;5032907;28;20025;-84
2021/11/05 05:47:42;;;;;;;65.93;24.45;;;7.20;99.90;;;;;;5030496;28;20045;-84
2021/11/05 05:50:11;;;;;;;95.95;25.33;;;6.70;99.90;;;;;;5034029;28;20039;-83
2021/11/05 05:52:37;;;;;;;50.08;24.25;;;6.80;99.90;;;;;;5032736;28;20049;-83
2021/11/05 05:55:04;;;;;;;48.88;23.85;;;7.20;99.90;;;;;;5033329;28;20520;-84
2021/11/05 05:57:30;;;;;;;42.42;24.23;;;6.80;99.90;;;;;;5032414;28;20036;-83
2021/11/05 05:59:56;;;;;;;39.55;23.92;;;6.90;99.90;;;;;;5032278;28;20029;-83
2021/11/05 06:02:21;;;;;;;72.35;26.92;;;7.50;99.90;;;;;;5030996;28;20381;-84
2021/11/05 06:04:47;;;;;;;62.63;26.20;;;7.70;99.90;;;;;;5036050;28;20497;-84
2021/11/05 06:07:12;;;;;;;78.72;27.70;;;7.50;99.90;;;;;;5033256;28;20457;-83
2021/11/05 06:09:38;;;;;;;55.25;27.05;;;6.90;99.90;;;;;;5033648;28;20044;-83
2021/11/05 06:12:04;;;;;;;67.90;26.70;;;7.40;99.90;;;;;;5033168;28;20022;-83
2021/11/05 06:14:30;;;;;;;44.95;25.13;;;6.60;99.90;;;;;;5029422;28;20033;-83
2021/11/05 06:16:56;;;;;;;47.28;26.58;;;6.90;99.90;;;;;;5038549;28;20075;-84
2021/11/05 06:19:21;;;;;;;47.15;27.63;;;6.60;99.90;;;;;;5037755;28;20021;-83
2021/11/05 06:21:47;;;;;;;49.25;27.67;;;6.80;99.90;;;;;;5036136;28;20032;-83
2021/11/05 06:24:13;;;;;;;46.92;28.88;;;7.30;99.90;;;;;;5036085;28;20108;-83
2021/11/05 06:26:38;;;;;;;42.13;26.65;;;7.40;99.90;;;;;;5033000;28;20088;-83
2021/11/05 06:29:04;;;;;;;45.80;26.02;;;6.90;99.90;;;;;;5038269;28;20362;-84
2021/11/05 06:31:33;;;;;;;85.25;25.75;;;6.90;99.90;;;;;;5038397;28;20021;-83
2021/11/05 06:34:00;;;;;;;84.75;25.85;;;6.70;99.90;;;;;;5037168;28;20037;-83
2021/11/05 06:36:26;;;;;;;70.43;26.63;;;7.20;99.90;;;;;;5037012;28;20017;-83
2021/11/05 06:38:52;;;;;;;76.57;25.65;;;6.70;99.90;;;;;;5034401;28;20112;-84
2021/11/05 06:41:19;;;;;;;73.00;25.83;;;7.20;99.90;;;;;;5034602;28;20449;-83
2021/11/05 06:43:45;;;;;;;48.38;25.23;;;6.80;99.90;;;;;;5036577;28;20367;-82
2021/11/05 06:46:11;;;;;;;57.13;24.60;;;6.70;99.90;;;;;;5037085;28;20028;-83
2021/11/05 06:48:37;;;;;;;34.00;22.98;;;6.70;99.90;;;;;;5035515;28;20041;-83
2021/11/05 06:51:03;;;;;;;55.55;22.50;;;7.30;99.90;;;;;;5036361;28;20055;-83
2021/11/05 06:53:28;;;;;;;56.40;22.48;;;6.80;99.90;;;;;;5032564;28;20036;-82
2021/11/05 06:55:54;;;;;;;80.05;22.00;;;6.80;99.90;;;;;;5038832;28;20028;-82
2021/11/05 06:58:20;;;;;;;62.92;21.58;;;6.80;99.90;;;;;;5036692;28;20091;-83
2021/11/05 07:00:48;;;;;;;45.15;21.40;;;6.80;99.90;;;;;;5035838;28;20029;-82
2021/11/05 07:03:14;;;;;;;62.15;20.83;;;7.20;99.90;;;;;;5035518;28;20509;-83
2021/11/05 07:05:40;;;;;;;42.80;19.70;;;7.40;99.90;;;;;;5032903;28;20025;-84
2021/11/05 07:08:06;;;;;;;38.38;19.70;;;6.80;99.90;;;;;;5036787;28;20045;-84
2021/11/05 07:10:32;;;;;;;41.55;19.67;;;6.90;99.90;;;;;;5037194;28;20014;-84
2021/11/05 07:12:57;;;;;;;40.58;25.48;;;6.80;99.90;;;;;;5036379;28;20386;-84
2021/11/05 07:15:23;;;;;;;41.72;20.52;;;6.90;99.90;;;;;;5036567;28;20032;-83
2021/11/05 07:17:48;;;;;;;36.90;19.55;;;7.60;99.90;;;;;;5033762;28;20037;-87
2021/11/05 07:20:14;;;;;;;33.45;19.77;;;7.10;99.90;;;;;;5035436;28;20021;-84
2021/11/05 07:22:45;;;;;;;24.52;17.55;;;7.40;99.90;;;;;;5037457;28;20021;-84
2021/11/05 07:25:12;;;;;;;24.48;17.02;;;7.20;99.90;;;;;;5035925;28;20029;-84
2021/11/05 07:27:40;;;;;;;60.88;17.80;;;7.30;99.90;;;;;;5035286;28;20034;-84
2021/11/05 07:30:09;;;;;;;31.30;17.25;;;7.00;99.90;;;;;;5036125;28;20021;-84
2021/11/05 07:32:36;;;;;;;26.98;17.50;;;7.10;99.90;;;;;;5016319;28;20021;-84
2021/11/05 07:35:03;;;;;;;30.92;16.67;;;7.00;99.90;;;;;;5045834;28;20043;-84
2021/11/05 07:37:29;;;;;;;36.65;16.08;;;7.00;99.90;;;;;;5035823;28;20041;-83
2021/11/05 07:39:55;;;;;;;46.75;17.30;;;6.70;99.90;;;;;;5035131;28;20108;-84
2021/11/05 07:42:22;;;;;;;34.25;17.27;;;7.00;99.90;;;;;;5034542;28;20447;-84
2021/11/05 07:44:48;;;;;;;89.97;17.10;;;7.00;99.90;;;;;;5033765;28;20045;-84
2021/11/05 07:47:14;;;;;;;82.45;17.13;;;7.60;99.90;;;;;;5034864;28;20068;-84
2021/11/05 07:49:40;;;;;;;22.83;16.08;;;7.50;99.90;;;;;;5037223;28;20018;-84
2021/11/05 07:52:07;;;;;;;25.23;16.00;;;7.00;99.90;;;;;;5035619;28;20413;-83
2021/11/05 07:54:32;;;;;;;42.15;17.15;;;7.20;99.90;;;;;;5034537;28;20383;-84
2021/11/05 07:56:58;;;;;;;22.13;14.82;;;7.40;99.90;;;;;;5034769;28;20040;-84
2021/11/05 07:59:23;;;;;;;23.50;15.02;;;7.40;99.90;;;;;;5032515;28;20567;-84
2021/11/05 08:01:49;;;;;;;22.38;16.45;;;7.80;99.90;;;;;;5037974;28;20474;-84
2021/11/05 08:04:15;;;;;;;20.10;15.27;;;7.30;99.90;;;;;;5035571;28;20025;-84
2021/11/05 08:06:40;;;;;;;18.73;15.35;;;8.30;99.90;;;;;;5034032;28;20029;-84
2021/11/05 08:09:06;;;;;;;20.08;14.65;;;7.80;99.90;;;;;;5035395;28;20017;-83
2021/11/05 08:11:33;;;;;;;22.45;14.93;;;7.80;99.90;;;;;;5031685;28;20037;-84
2021/11/05 08:13:59;;;;;;;18.60;14.75;;;7.60;99.90;;;;;;5037432;28;20032;-84
2021/11/05 08:16:25;;;;;;;20.08;15.05;;;7.60;99.90;;;;;;5035148;28;20535;-83
2021/11/05 08:18:52;;;;;;;18.70;15.10;;;8.40;99.90;;;;;;5034073;28;20056;-83
2021/11/05 08:21:18;;;;;;;19.52;13.85;;;8.00;99.90;;;;;;5034089;28;20024;-84
2021/11/05 08:23:44;;;;;;;16.77;13.88;;;7.80;99.90;;;;;;5032079;28;20026;-84
2021/11/05 08:26:10;;;;;;;16.45;12.60;;;8.00;99.90;;;;;;5034848;28;20041;-84
2021/11/05 08:28:38;;;;;;;17.95;13.40;;;8.10;99.90;;;;;;5031629;28;20114;-84
2021/11/05 08:31:04;;;;;;;18.85;13.25;;;7.70;99.90;;;;;;5035291;28;20024;-84
2021/11/05 08:33:30;;;;;;;30.75;26.13;;;7.60;99.90;;;;;;5034408;28;20048;-84
2021/11/05 08:35:55;;;;;;;18.77;14.05;;;7.70;99.90;;;;;;5033697;28;20036;-84
2021/11/05 08:38:22;;;;;;;21.50;16.33;;;7.70;99.90;;;;;;5032004;28;20033;-84
2021/11/05 08:40:51;;;;;;;16.02;12.80;;;7.90;99.90;;;;;;5037163;28;20021;-85
2021/11/05 08:43:25;;;;;;;16.00;13.07;;;8.10;99.90;;;;;;5034668;28;20037;-91
2021/11/05 08:45:51;;;;;;;16.42;13.95;;;8.10;99.90;;;;;;5034856;28;20508;-84
2021/11/05 08:48:19;;;;;;;14.63;12.60;;;9.00;99.90;;;;;;5035104;28;20045;-84
2021/11/05 08:50:44;;;;;;;16.40;12.13;;;8.80;99.90;;;;;;5031575;28;20093;-84
2021/11/05 08:53:10;;;;;;;17.42;13.95;;;9.00;99.90;;;;;;5035370;28;20037;-83
2021/11/05 08:55:38;;;;;;;16.98;13.13;;;8.80;99.90;;;;;;5035308;28;20101;-83
2021/11/05 08:58:04;;;;;;;17.20;13.80;;;8.60;99.90;;;;;;5033235;28;20104;-84
2021/11/05 09:00:32;;;;;;;18.52;13.77;;;8.70;99.90;;;;;;5033377;28;20032;-84
2021/11/05 09:02:59;;;;;;;18.63;12.90;;;8.80;99.90;;;;;;5033153;28;20366;-83
2021/11/05 09:05:25;;;;;;;15.63;13.20;;;8.60;99.90;;;;;;5031353;28;20506;-83
2021/11/05 09:07:51;;;;;;;19.02;13.43;;;8.60;99.90;;;;;;5036594;28;20091;-84
2021/11/05 09:10:17;;;;;;;14.93;11.52;;;8.60;99.90;;;;;;5034041;28;20087;-84
2021/11/05 09:12:43;;;;;;;16.13;12.02;;;8.90;99.90;;;;;;5035042;28;20029;-85
2021/11/05 09:15:10;;;;;;;14.57;12.23;;;9.40;99.90;;;;;;5032626;28;20424;-84
2021/11/05 09:17:38;;;;;;;20.45;12.32;;;9.20;99.90;;;;;;5028228;28;20070;-85
2021/11/05 09:20:09;;;;;;;18.33;13.80;;;9.40;99.90;;;;;;5035889;28;20021;-84
2021/11/05 09:22:35;;;;;;;15.25;12.90;;;8.90;99.90;;;;;;5033410;28;20040;-84
2021/11/05 09:25:00;;;;;;;15.80;12.35;;;8.70;99.90;;;;;;5034244;28;20033;-84
2021/11/05 09:27:29;;;;;;;13.20;11.80;;;9.80;99.90;;;;;;5034157;28;20063;-83
2021/11/05 09:29:55;;;;;;;13.27;11.88;;;9.90;99.90;;;;;;5033070;28;20075;-84
2021/11/05 09:32:24;;;;;;;16.05;12.70;;;12.40;99.90;;;;;;5030961;28;20492;-84
2021/11/05 09:34:54;;;;;;;12.25;10.93;;;13.10;99.90;;;;;;5036071;28;20030;-83
2021/11/05 09:37:20;;;;;;;11.73;10.05;;;13.50;99.90;;;;;;5032700;28;20086;-83
2021/11/05 09:39:46;;;;;;;12.20;10.00;;;13.10;99.90;;;;;;5032502;28;20552;-83
2021/11/05 09:42:11;;;;;;;14.48;11.10;;;12.10;99.90;;;;;;5033841;28;20080;-84
2021/11/05 09:44:39;;;;;;;11.93;10.27;;;11.80;99.90;;;;;;5029600;28;20089;-84
2021/11/05 09:47:04;;;;;;;11.65;10.45;;;12.10;99.90;;;;;;5035863;28;20025;-83
2021/11/05 09:49:32;;;;;;;12.02;10.27;;;13.10;99.90;;;;;;5032492;28;20030;-84
2021/11/05 09:52:00;;;;;;;13.50;9.98;;;14.90;99.90;;;;;;5033362;28;20025;-85
2021/11/05 09:54:30;;;;;;;11.38;9.57;;;14.80;99.90;;;;;;5034292;28;20051;-83
2021/11/05 09:56:55;;;;;;;10.40;9.18;;;17.50;99.90;;;;;;5032293;28;20032;-83
2021/11/05 09:59:21;;;;;;;9.32;8.32;;;21.30;99.90;;;;;;5030828;28;20033;-84
2021/11/05 10:01:46;;;;;;;9.70;8.25;;;21.10;99.90;;;;;;5035507;28;20029;-84
2021/11/05 10:04:13;;;;;;;8.73;7.68;;;19.70;99.90;;;;;;5034010;28;20033;-84
2021/11/05 10:06:55;;;;;;;9.38;8.43;;;21.70;99.90;;;;;;5033897;28;20044;-83
2021/11/05 10:09:21;;;;;;;8.55;7.75;;;23.10;99.90;;;;;;5033206;28;20507;-84
2021/11/05 10:11:47;;;;;;;9.35;8.40;;;21.10;99.90;;;;;;5031267;28;20022;-84
2021/11/05 10:14:20;;;;;;;10.05;8.80;;;23.10;99.90;;;;;;5033125;28;20033;-84
2021/11/05 10:17:04;;;;;;;8.73;7.60;;;23.80;99.90;;;;;;5033216;28;20076;-84
2021/11/05 10:19:45;;;;;;;8.95;8.07;;;23.50;99.90;;;;;;5033462;28;20028;-84
2021/11/05 10:22:31;;;;;;;8.32;7.47;;;27.80;99.90;;;;;;5033515;28;20037;-85
2021/11/05 10:25:40;;;;;;;8.85;7.95;;;26.80;99.90;;;;;;5034098;28;20025;-84
2021/11/05 10:28:24;;;;;;;9.57;8.20;;;27.80;99.90;;;;;;5031112;28;20857;-85
2021/11/05 10:31:00;;;;;;;8.20;6.60;;;27.90;99.90;;;;;;5028342;28;20026;-84
2021/11/05 10:33:37;;;;;;;8.32;7.53;;;29.00;99.90;;;;;;5023223;28;20031;-85
2021/11/05 10:36:05;;;;;;;7.82;7.03;;;29.00;99.90;;;;;;5032649;28;20453;-84
2021/11/05 10:38:33;;;;;;;7.60;6.90;;;28.30;99.90;;;;;;5029322;28;20393;-84
2021/11/05 10:41:01;;;;;;;7.93;7.18;;;31.10;99.90;;;;;;5035639;28;20032;-84
2021/11/05 10:43:31;;;;;;;7.03;6.32;;;31.40;99.90;;;;;;5033493;28;20033;-85
2021/11/05 10:45:58;;;;;;;7.13;6.22;;;30.40;99.90;;;;;;5033220;28;20108;-84
2021/11/05 10:48:27;;;;;;;6.72;6.05;;;29.50;99.90;;;;;;5032896;28;20060;-84
2021/11/05 10:50:55;;;;;;;6.80;5.97;;;29.40;99.90;;;;;;5031465;28;20565;-84
2021/11/05 10:53:26;;;;;;;5.68;5.18;;;31.00;99.90;;;;;;5031616;28;20030;-84
2021/11/05 10:55:52;;;;;;;5.82;5.32;;;29.20;99.90;;;;;;5033906;28;20041;-83
2021/11/05 10:58:17;;;;;;;7.55;5.85;;;31.00;99.90;;;;;;5031370;28;20036;-83
2021/11/05 11:00:43;;;;;;;7.05;6.43;;;24.80;99.90;;;;;;5033088;28;20017;-84
2021/11/05 11:03:26;;;;;;;6.88;6.07;;;22.80;99.90;;;;;;5035014;28;20056;-89
2021/11/05 11:05:53;;;;;;;6.72;5.93;;;20.90;99.90;;;;;;5034676;28;20505;-88
2021/11/05 11:08:26;;;;;;;6.38;5.88;;;19.50;99.90;;;;;;5034321;28;20041;-86
2021/11/05 11:10:56;;;;;;;7.25;6.55;;;22.90;99.90;;;;;;5037281;28;20025;-86
2021/11/05 11:13:30;;;;;;;7.20;6.05;;;26.10;99.90;;;;;;5036358;28;20036;-86
2021/11/05 11:15:56;;;;;;;6.45;5.30;;;28.60;99.90;;;;;;5036309;28;20021;-86
2021/11/05 11:18:22;;;;;;;8.23;5.78;;;28.80;99.90;;;;;;5036402;28;20620;-84
2021/11/05 11:20:48;;;;;;;6.75;5.22;;;29.50;99.90;;;;;;5031835;28;20030;-89
2021/11/05 11:23:14;;;;;;;6.25;5.22;;;31.30;99.90;;;;;;5035518;28;20478;-89
2021/11/05 11:25:42;;;;;;;6.25;5.35;;;31.50;99.90;;;;;;5032885;28;20052;-88
2021/11/05 11:28:08;;;;;;;6.15;5.63;;;31.70;99.90;;;;;;5032992;28;20042;-84
2021/11/05 11:30:34;;;;;;;6.18;5.18;;;31.20;99.90;;;;;;5036263;28;20096;-86
2021/11/05 11:33:01;;;;;;;6.15;5.55;;;31.90;99.90;;;;;;5034418;28;20136;-86
2021/11/05 11:35:26;;;;;;;4.75;4.35;;;32.30;99.90;;;;;;5032555;28;20037;-85
2021/11/05 11:37:52;;;;;;;5.88;4.20;;;32.40;99.90;;;;;;5037437;28;20035;-86
2021/11/05 11:40:18;;;;;;;5.97;4.00;;;32.70;99.90;;;;;;5035995;28;20025;-84
2021/11/05 11:42:44;;;;;;;3.88;3.55;;;33.60;99.90;;;;;;5035600;28;20034;-84
2021/11/05 11:45:12;;;;;;;5.07;3.40;;;32.70;99.90;;;;;;5036146;28;20021;-85
2021/11/05 11:47:46;;;;;;;3.67;3.38;;;32.80;99.90;;;;;;5031474;28;20448;-83
2021/11/05 11:50:37;;;;;;;2.83;2.63;;;32.80;99.90;;;;;;5036119;28;20022;-83
2021/11/05 11:53:05;;;;;;;2.50;2.30;;;31.90;99.90;;;;;;5045218;28;20029;-84
2021/11/05 11:55:33;;;;;;;3.03;2.70;;;31.30;99.90;;;;;;5034099;28;20025;-84
2021/11/05 11:58:11;;;;;;;2.65;2.45;;;30.80;99.90;;;;;;5035421;28;20094;-84
2021/11/05 12:00:37;;;;;;;2.40;2.20;;;31.90;99.90;;;;;;5035360;28;20068;-86
2021/11/05 12:03:06;;;;;;;3.35;2.10;;;31.20;99.90;;;;;;5034564;28;20442;-84
2021/11/05 12:05:31;;;;;;;3.40;2.30;;;31.20;99.90;;;;;;5031431;28;20053;-83
2021/11/05 12:08:27;;;;;;;3.05;2.53;;;28.50;99.90;;;;;;5036549;28;20072;-84
2021/11/05 12:11:07;;;;;;;2.55;2.35;;;31.00;99.90;;;;;;5036036;28;20512;-84
2021/11/05 12:13:32;;;;;;;3.42;2.60;;;29.00;99.90;;;;;;5033102;28;20037;-84
2021/11/05 12:16:11;;;;;;;3.13;2.53;;;25.20;99.90;;;;;;5034869;28;20032;-84
2021/11/05 12:19:03;;;;;;;4.50;2.45;;;23.10;99.90;;;;;;5036074;28;20017;-84
2021/11/05 12:21:46;;;;;;;3.15;2.30;;;21.80;99.90;;;;;;5034901;28;20511;-84
2021/11/05 12:24:19;;;;;;;2.45;2.28;;;21.10;99.90;;;;;;5035243;28;20487;-84
2021/11/05 12:26:58;;;;;;;1.67;1.58;;;20.30;99.90;;;;;;5031689;28;20053;-83
2021/11/05 12:29:33;;;;;;;2.33;1.55;;;19.50;99.90;;;;;;5032878;28;20033;-84
2021/11/05 12:32:22;;;;;;;2.33;1.45;;;23.00;99.90;;;;;;5037050;28;20029;-82
2021/11/05 12:35:05;;;;;;;1.67;1.30;;;21.70;99.90;;;;;;5034804;28;20052;-84
2021/11/05 12:37:33;;;;;;;2.78;1.40;;;20.60;99.90;;;;;;5032443;28;20030;-84
2021/11/05 12:40:21;;;;;;;1.52;1.30;;;19.60;99.90;;;;;;5034282;28;20022;-84
2021/11/05 12:42:49;;;;;;;1.48;1.10;;;19.10;99.90;;;;;;5035264;28;20464;-83
2021/11/05 12:45:15;;;;;;;1.45;1.20;;;18.50;99.90;;;;;;5034626;28;20052;-85